createdAt,value
2024-02-13T00:04:26.598Z,98944.20
2024-02-13T00:09:29.561Z,98948.69
2024-02-13T00:14:32.495Z,98960.45
2024-02-13T00:19:35.996Z,98966.00
2024-02-13T00:24:40.195Z,98972.50
2024-02-13T00:29:46.003Z,98975.75
2024-02-13T00:34:51.303Z,98982.56
2024-02-13T00:39:56.339Z,98990.27
2024-02-13T00:45:04.690Z,98995.50
2024-02-13T00:50:09.973Z,99005.23
2024-02-13T00:55:13.248Z,99015.29
2024-02-13T01:00:16.439Z,99021.20
2024-02-13T01:05:20.319Z,99033.61
2024-02-13T01:10:23.214Z,99039.73
2024-02-13T01:15:28.266Z,99048.05
2024-02-13T01:20:31.584Z,99055.14
2024-02-13T01:25:36.448Z,99062.94
2024-02-13T01:30:39.473Z,99068.75
2024-02-13T01:35:44.154Z,99076.09
2024-02-13T01:40:47.843Z,99081.45
2024-02-13T01:45:50.773Z,99089.75
2024-02-13T01:50:57.448Z,99094.29
2024-02-13T01:56:04.024Z,99099.33
2024-02-13T02:01:07.959Z,99101.60
2024-02-13T02:06:11.205Z,99107.14
2024-02-13T02:11:15.755Z,99117.16
2024-02-13T02:16:18.840Z,99121.82
2024-02-13T02:21:21.934Z,99126.14
2024-02-13T02:26:26.446Z,99132.23
2024-02-13T02:31:29.416Z,99135.61
2024-02-13T02:36:33.521Z,99143.27
2024-02-13T02:41:36.972Z,99154.70
2024-02-13T02:46:40.804Z,99164.74
2024-02-13T02:51:45.073Z,99170.17
2024-02-13T02:56:48.062Z,99184.36
2024-02-13T03:01:50.991Z,99194.11
2024-02-13T03:06:56.039Z,99202.36
2024-02-13T03:11:58.946Z,99216.42
2024-02-13T03:17:02.042Z,99234.55
2024-02-13T03:22:04.876Z,99248.88
2024-02-13T03:27:07.723Z,99258.58
2024-02-13T03:32:10.741Z,99268.79
2024-02-13T03:37:15.093Z,99272.63
2024-02-13T03:42:18.022Z,99282.98
2024-02-13T03:47:21.067Z,99282.64
2024-02-13T03:52:23.953Z,99291.64
2024-02-13T03:57:26.914Z,99306.30
2024-02-13T04:02:31.634Z,99317.30
2024-02-13T04:07:36.819Z,99326.44
2024-02-13T04:12:39.829Z,99332.63
2024-02-13T04:17:43.314Z,99344.86
2024-02-13T04:22:46.421Z,99353.99
2024-02-13T04:27:49.297Z,99356.41
2024-02-13T04:32:52.369Z,99362.29
2024-02-13T04:37:55.537Z,99375.56
2024-02-13T04:42:58.417Z,99378.48
2024-02-13T04:48:01.653Z,99385.16
2024-02-13T04:53:05.140Z,99390.85
2024-02-13T04:58:09.380Z,99393.27
2024-02-13T05:03:18.758Z,99398.41
2024-02-13T05:08:23.006Z,99407.84
2024-02-13T05:13:26.184Z,99415.77
2024-02-13T05:18:29.364Z,99418.54
2024-02-13T05:23:32.343Z,99423.68
2024-02-13T05:28:38.758Z,99429.73
2024-02-13T05:33:41.849Z,99436.95
2024-02-13T05:38:45.797Z,99441.78
2024-02-13T05:43:48.959Z,99450.55
2024-02-13T05:48:55.634Z,99453.14
2024-02-13T05:54:00.121Z,99464.16
2024-02-13T05:59:04.463Z,99474.64
2024-02-13T06:04:09.983Z,99482.02
2024-02-13T06:09:14.273Z,99492.31
2024-02-13T06:14:17.530Z,99507.96
2024-02-13T06:19:20.771Z,99516.02
2024-02-13T06:24:25.099Z,99521.88
2024-02-13T06:29:28.095Z,99527.88
2024-02-13T06:34:31.083Z,99531.99
2024-02-13T06:39:34.135Z,99542.45
2024-02-13T06:44:38.237Z,99548.42
2024-02-13T06:49:43.225Z,99557.67
2024-02-13T06:54:50.383Z,99569.19
2024-02-13T06:59:55.533Z,99573.13
2024-02-13T07:04:58.440Z,99578.79
2024-02-13T07:10:02.512Z,99585.83
2024-02-13T07:15:07.771Z,99593.38
2024-02-13T07:20:14.437Z,99606.78
2024-02-13T07:25:17.429Z,99613.79
2024-02-13T07:30:20.504Z,99620.96
2024-02-13T07:35:24.197Z,99626.77
2024-02-13T07:40:27.640Z,99623.36
2024-02-13T07:45:30.566Z,99627.77
2024-02-13T07:50:36.800Z,99635.13
2024-02-13T07:55:39.951Z,99642.04
2024-02-13T08:00:44.510Z,99652.91
2024-02-13T08:05:47.606Z,99660.84
2024-02-13T08:10:52.572Z,99663.81
2024-02-13T08:15:56.194Z,99672.09
2024-02-13T08:21:00.315Z,99671.65
2024-02-13T08:26:03.690Z,99683.11
2024-02-13T08:31:08.078Z,99688.94
2024-02-13T08:36:12.975Z,99699.37
2024-02-13T08:41:17.550Z,99705.48
2024-02-13T08:46:23.797Z,99708.27
2024-02-13T08:51:28.401Z,99713.65
2024-02-13T08:56:31.816Z,99718.23
2024-02-13T09:01:35.623Z,99723.48
2024-02-13T09:06:39.291Z,99733.65
2024-02-13T09:11:44.052Z,99738.21
2024-02-13T09:16:47.246Z,99740.44
2024-02-13T09:21:51.761Z,99746.48
2024-02-13T09:26:55.244Z,99750.71
2024-02-13T09:31:58.908Z,99763.19
2024-02-13T09:37:02.063Z,99764.63
2024-02-13T09:42:05.575Z,99770.02
2024-02-13T09:47:10.583Z,99781.81
2024-02-13T09:52:20.327Z,99792.67
2024-02-13T09:57:24.039Z,99803.47
2024-02-13T10:08:22.591Z,99815.06
2024-02-13T10:13:47.080Z,99820.35
2024-02-13T10:19:05.217Z,99831.34
2024-02-13T10:24:46.307Z,99839.43
2024-02-13T10:30:00.186Z,99849.77
2024-02-13T10:41:02.669Z,99855.52
2024-02-13T10:47:39.842Z,99855.46
2024-02-13T10:52:59.402Z,99866.17
2024-02-13T10:58:17.094Z,99869.52
2024-02-13T11:03:25.915Z,99869.69
2024-02-13T11:08:30.183Z,99870.27
2024-02-13T11:13:35.481Z,99884.47
2024-02-13T11:19:05.117Z,99895.17
2024-02-13T11:24:10.613Z,99895.81
2024-02-13T11:29:18.666Z,99900.81
2024-02-13T11:34:23.745Z,99902.42
2024-02-13T11:39:26.924Z,99906.31
2024-02-13T11:44:32.022Z,99911.52
2024-02-13T11:49:36.952Z,99923.89
2024-02-13T11:54:46.238Z,99932.47
2024-02-13T12:00:13.879Z,99942.38
2024-02-13T12:05:17.870Z,99949.21
2024-02-13T12:10:26.304Z,99955.21
2024-02-13T12:15:30.513Z,99965.21
2024-02-13T12:20:34.590Z,99971.59
2024-02-13T12:25:37.720Z,99977.84
2024-02-13T12:30:47.619Z,99978.38
2024-02-13T12:36:07.135Z,99979.55
2024-02-13T12:41:10.310Z,99991.14
2024-02-13T12:46:14.425Z,100002.27
2024-02-13T12:51:19.214Z,100003.90
2024-02-13T12:56:26.761Z,100006.89
2024-02-13T13:01:32.617Z,100011.35
2024-02-13T13:06:38.233Z,100012.56
2024-02-13T13:11:43.377Z,100018.24
2024-02-13T13:16:46.833Z,100027.61
2024-02-13T13:21:51.593Z,100032.77
2024-02-13T13:26:55.240Z,100033.00
2024-02-13T13:31:58.496Z,100041.89
2024-02-13T13:37:01.718Z,100046.71
2024-02-13T13:42:11.214Z,100055.41
2024-02-13T13:47:14.294Z,100066.75
2024-02-13T13:52:20.404Z,100069.13
2024-02-13T13:57:24.165Z,100075.48
2024-02-13T14:02:29.199Z,100080.36
2024-02-13T14:07:34.931Z,100082.83
2024-02-13T14:12:38.343Z,100091.17
2024-02-13T14:17:43.701Z,100099.34
2024-02-13T14:22:49.670Z,100105.79
2024-02-13T14:27:55.954Z,100113.48
2024-02-13T14:33:00.687Z,100118.47
2024-02-13T14:38:04.940Z,100127.55
2024-02-13T14:43:08.801Z,100122.27
2024-02-13T14:48:14.901Z,100131.38
2024-02-13T14:53:22.555Z,100139.20
2024-02-13T14:58:34.366Z,100137.48
2024-02-13T15:03:46.484Z,100143.55
2024-02-13T15:08:53.153Z,100149.48
2024-02-13T15:13:57.539Z,100154.23
2024-02-13T15:19:04.075Z,100165.64
2024-02-13T15:24:08.238Z,100169.28
2024-02-13T15:29:14.787Z,100166.35
2024-02-13T15:34:18.680Z,100164.98
2024-02-13T15:39:40.441Z,100173.50
2024-02-13T15:45:02.620Z,100174.38
2024-02-13T15:50:12.638Z,100183.90
2024-02-13T15:55:19.936Z,100195.82
2024-02-13T16:00:28.578Z,100203.29
2024-02-13T16:05:33.443Z,100214.86
2024-02-13T16:10:36.524Z,100222.13
2024-02-13T16:15:39.530Z,100224.88
2024-02-13T16:20:42.751Z,100232.47
2024-02-13T16:25:45.681Z,100233.86
2024-02-13T16:30:48.833Z,100241.10
2024-02-13T16:35:51.864Z,100248.88
2024-02-13T16:40:54.852Z,100253.88
2024-02-13T16:45:57.832Z,100261.82
2024-02-13T16:51:00.792Z,100267.68
2024-02-13T16:56:04.559Z,100268.90
2024-02-13T17:01:07.693Z,100272.52
2024-02-13T17:06:10.860Z,100285.80
2024-02-13T17:11:15.034Z,100289.08
2024-02-13T17:16:18.253Z,100288.73
2024-02-13T17:21:21.648Z,100291.50
2024-02-13T17:26:24.828Z,100301.32
2024-02-13T17:31:28.584Z,100303.05
2024-02-13T17:36:32.752Z,100307.54
2024-02-13T17:41:35.602Z,100312.02
2024-02-13T17:46:39.124Z,100320.98
2024-02-13T17:51:44.298Z,100319.27
2024-02-13T17:56:48.911Z,100318.42
2024-02-13T18:01:53.709Z,100319.63
2024-02-13T18:06:57.239Z,100328.07
2024-02-13T18:12:06.760Z,100330.14
2024-02-13T18:17:11.626Z,100328.41
2024-02-13T18:22:14.601Z,100337.02
2024-02-13T18:27:17.708Z,100343.58
2024-02-13T18:32:21.484Z,100344.44
2024-02-13T18:37:29.163Z,100344.27
2024-02-13T18:42:33.688Z,100348.76
2024-02-13T18:47:37.259Z,100353.76
2024-02-13T18:52:42.911Z,100356.35
2024-02-13T18:57:49.150Z,100362.20
2024-02-13T19:02:53.802Z,100367.72
2024-02-13T19:07:57.986Z,100372.89
2024-02-13T19:13:02.274Z,100378.06
2024-02-13T19:18:05.726Z,100391.85
2024-02-13T19:23:10.379Z,100398.92
2024-02-13T19:28:14.424Z,100401.84
2024-02-13T19:33:18.128Z,100407.71
2024-02-13T19:38:21.586Z,100420.65
2024-02-13T19:43:24.625Z,100426.67
2024-02-13T19:48:27.926Z,100426.51
2024-02-13T19:53:31.456Z,100423.75
2024-02-13T19:58:35.669Z,100422.19
2024-02-13T20:03:40.323Z,100429.77
2024-02-13T20:08:43.426Z,100430.82
2024-02-13T20:13:47.654Z,100434.80
2024-02-13T20:18:51.043Z,100436.17
2024-02-13T20:23:55.117Z,100435.51
2024-02-13T20:28:58.104Z,100438.96
2024-02-13T20:34:01.270Z,100442.25
2024-02-13T20:39:11.565Z,100439.31
2024-02-13T20:44:15.768Z,100447.55
2024-02-13T20:49:19.480Z,100450.95
2024-02-13T20:54:23.427Z,100454.67
2024-02-13T20:59:30.928Z,100453.91
2024-02-13T21:04:34.053Z,100459.83
2024-02-13T21:09:38.247Z,100461.11
2024-02-13T21:14:42.058Z,100467.59
2024-02-13T21:19:44.997Z,100471.45
2024-02-13T21:24:51.403Z,100477.20
2024-02-13T21:29:54.361Z,100479.19
2024-02-13T21:34:57.788Z,100483.44
2024-02-13T21:40:00.867Z,100494.20
2024-02-13T21:45:09.294Z,100497.36
2024-02-13T21:50:14.508Z,100505.20
2024-02-13T21:55:17.374Z,100503.27
2024-02-13T22:00:20.598Z,100500.79
2024-02-13T22:05:23.694Z,100501.02
2024-02-13T22:10:26.814Z,100500.80
2024-02-13T22:15:30.666Z,100504.23
2024-02-13T22:20:38.372Z,100502.42
2024-02-13T22:25:45.132Z,100505.95
2024-02-13T22:30:48.054Z,100510.54
2024-02-13T22:35:50.933Z,100516.67
2024-02-13T22:40:54.113Z,100516.47
2024-02-13T22:45:57.979Z,100521.45
2024-02-13T22:51:00.925Z,100521.70
2024-02-13T22:56:05.604Z,100524.21
2024-02-13T23:01:08.665Z,100529.90
2024-02-13T23:06:12.116Z,100536.59
2024-02-13T23:11:15.500Z,100533.61
2024-02-13T23:16:18.424Z,100533.36
2024-02-13T23:21:21.477Z,100532.73
2024-02-13T23:26:24.525Z,100530.24
2024-02-13T23:31:27.524Z,100537.39
2024-02-13T23:36:30.466Z,100540.55
2024-02-13T23:41:33.953Z,100535.80
2024-02-13T23:46:37.102Z,100535.37
2024-02-13T23:51:40.981Z,100535.50
2024-02-13T23:56:44.337Z,100536.48
